sensor_id;sensor_type;location;lat;lon;timestamp;P1;durP1;ratioP1;P2;durP2;ratioP2
55720;SDS011;41626;53.098;6.168;2023-02-21T00:01:04;24.30;;;10.25;;
55720;SDS011;41626;53.098;6.168;2023-02-21T00:03:49;22.73;;;10.60;;
55720;SDS011;41626;53.098;6.168;2023-02-21T00:06:33;21.90;;;10.10;;
55720;SDS011;41626;53.098;6.168;2023-02-21T00:09:17;28.53;;;10.73;;
55720;SDS011;41626;53.098;6.168;2023-02-21T00:12:01;20.55;;;10.95;;
55720;SDS011;41626;53.098;6.168;2023-02-21T00:14:46;22.38;;;11.45;;
55720;SDS011;41626;53.098;6.168;2023-02-21T00:17:30;25.10;;;12.25;;
55720;SDS011;41626;53.098;6.168;2023-02-21T00:20:14;26.65;;;11.80;;
55720;SDS011;41626;53.098;6.168;2023-02-21T00:22:58;23.85;;;11.18;;
55720;SDS011;41626;53.098;6.168;2023-02-21T00:25:43;27.15;;;11.60;;
55720;SDS011;41626;53.098;6.168;2023-02-21T00:28:27;19.73;;;9.93;;
55720;SDS011;41626;53.098;6.168;2023-02-21T00:31:11;21.30;;;10.25;;
55720;SDS011;41626;53.098;6.168;2023-02-21T00:33:55;27.63;;;11.90;;
55720;SDS011;41626;53.098;6.168;2023-02-21T00:36:39;18.95;;;9.98;;
55720;SDS011;41626;53.098;6.168;2023-02-21T00:39:23;22.67;;;10.57;;
55720;SDS011;41626;53.098;6.168;2023-02-21T00:42:08;27.08;;;11.25;;
55720;SDS011;41626;53.098;6.168;2023-02-21T00:44:52;30.15;;;12.10;;
55720;SDS011;41626;53.098;6.168;2023-02-21T00:47:36;24.70;;;10.60;;
55720;SDS011;41626;53.098;6.168;2023-02-21T00:50:21;26.85;;;12.05;;
55720;SDS011;41626;53.098;6.168;2023-02-21T00:53:05;25.38;;;11.63;;
55720;SDS011;41626;53.098;6.168;2023-02-21T00:55:49;19.75;;;11.20;;
55720;SDS011;41626;53.098;6.168;2023-02-21T00:58:33;20.05;;;10.20;;
55720;SDS011;41626;53.098;6.168;2023-02-21T01:01:17;19.83;;;9.00;;
55720;SDS011;41626;53.098;6.168;2023-02-21T01:04:01;18.52;;;9.98;;
55720;SDS011;41626;53.098;6.168;2023-02-21T01:06:49;21.75;;;10.18;;
55720;SDS011;41626;53.098;6.168;2023-02-21T01:09:33;18.80;;;8.98;;
55720;SDS011;41626;53.098;6.168;2023-02-21T01:12:17;22.25;;;9.52;;
55720;SDS011;41626;53.098;6.168;2023-02-21T01:15:02;16.65;;;9.20;;
55720;SDS011;41626;53.098;6.168;2023-02-21T01:17:46;20.53;;;10.13;;
55720;SDS011;41626;53.098;6.168;2023-02-21T01:20:30;19.10;;;9.68;;
55720;SDS011;41626;53.098;6.168;2023-02-21T01:23:15;18.23;;;9.75;;
55720;SDS011;41626;53.098;6.168;2023-02-21T01:25:59;24.02;;;10.70;;
55720;SDS011;41626;53.098;6.168;2023-02-21T01:28:43;22.63;;;11.52;;
55720;SDS011;41626;53.098;6.168;2023-02-21T01:31:30;22.95;;;11.23;;
55720;SDS011;41626;53.098;6.168;2023-02-21T01:34:15;22.58;;;11.75;;
55720;SDS011;41626;53.098;6.168;2023-02-21T01:36:59;22.85;;;13.00;;
55720;SDS011;41626;53.098;6.168;2023-02-21T01:39:43;22.77;;;12.40;;
55720;SDS011;41626;53.098;6.168;2023-02-21T01:42:27;19.77;;;11.30;;
55720;SDS011;41626;53.098;6.168;2023-02-21T01:48:11;22.15;;;13.40;;
55720;SDS011;41626;53.098;6.168;2023-02-21T01:50:58;23.80;;;13.13;;
55720;SDS011;41626;53.098;6.168;2023-02-21T01:53:44;24.42;;;12.60;;
55720;SDS011;41626;53.098;6.168;2023-02-21T01:56:28;18.98;;;11.68;;
55720;SDS011;41626;53.098;6.168;2023-02-21T01:59:14;22.27;;;12.52;;
55720;SDS011;41626;53.098;6.168;2023-02-21T02:02:03;19.73;;;12.13;;
55720;SDS011;41626;53.098;6.168;2023-02-21T02:04:54;25.67;;;11.70;;
55720;SDS011;41626;53.098;6.168;2023-02-21T02:07:38;18.63;;;11.60;;
55720;SDS011;41626;53.098;6.168;2023-02-21T02:10:23;19.88;;;11.52;;
55720;SDS011;41626;53.098;6.168;2023-02-21T02:32:36;18.95;;;12.02;;
55720;SDS011;41626;53.098;6.168;2023-02-21T02:35:24;25.55;;;13.55;;
55720;SDS011;41626;53.098;6.168;2023-02-21T02:43:34;22.15;;;14.05;;
55720;SDS011;41626;53.098;6.168;2023-02-21T02:46:19;22.90;;;13.88;;
55720;SDS011;41626;53.098;6.168;2023-02-21T02:48:59;24.77;;;13.07;;
55720;SDS011;41626;53.098;6.168;2023-02-21T02:51:25;22.98;;;12.90;;
55720;SDS011;41626;53.098;6.168;2023-02-21T02:53:52;25.27;;;13.30;;
55720;SDS011;41626;53.098;6.168;2023-02-21T02:56:18;20.95;;;12.90;;
55720;SDS011;41626;53.098;6.168;2023-02-21T03:12:04;22.73;;;12.95;;
55720;SDS011;41626;53.098;6.168;2023-02-21T03:14:45;19.88;;;12.90;;
55720;SDS011;41626;53.098;6.168;2023-02-21T03:17:15;22.47;;;13.37;;
55720;SDS011;41626;53.098;6.168;2023-02-21T03:19:44;26.77;;;14.02;;
55720;SDS011;41626;53.098;6.168;2023-02-21T03:22:14;22.50;;;13.70;;
55720;SDS011;41626;53.098;6.168;2023-02-21T03:24:43;24.35;;;14.75;;
55720;SDS011;41626;53.098;6.168;2023-02-21T03:27:11;22.58;;;13.93;;
55720;SDS011;41626;53.098;6.168;2023-02-21T03:29:37;21.52;;;13.85;;
55720;SDS011;41626;53.098;6.168;2023-02-21T03:32:13;27.05;;;15.13;;
55720;SDS011;41626;53.098;6.168;2023-02-21T03:34:52;24.30;;;14.38;;
55720;SDS011;41626;53.098;6.168;2023-02-21T03:37:28;25.30;;;16.13;;
55720;SDS011;41626;53.098;6.168;2023-02-21T03:40:00;23.27;;;15.75;;
55720;SDS011;41626;53.098;6.168;2023-02-21T03:42:27;25.38;;;16.80;;
55720;SDS011;41626;53.098;6.168;2023-02-21T03:44:52;22.77;;;16.47;;
55720;SDS011;41626;53.098;6.168;2023-02-21T03:47:18;24.40;;;16.23;;
55720;SDS011;41626;53.098;6.168;2023-02-21T03:49:44;23.27;;;16.25;;
55720;SDS011;41626;53.098;6.168;2023-02-21T03:52:10;26.92;;;15.98;;
55720;SDS011;41626;53.098;6.168;2023-02-21T03:54:37;24.30;;;16.90;;
55720;SDS011;41626;53.098;6.168;2023-02-21T03:57:03;25.98;;;16.35;;
55720;SDS011;41626;53.098;6.168;2023-02-21T03:59:29;24.23;;;17.83;;
55720;SDS011;41626;53.098;6.168;2023-02-21T04:01:55;26.30;;;17.90;;
55720;SDS011;41626;53.098;6.168;2023-02-21T04:04:20;23.77;;;16.93;;
55720;SDS011;41626;53.098;6.168;2023-02-21T04:06:46;26.70;;;18.57;;
55720;SDS011;41626;53.098;6.168;2023-02-21T04:09:12;23.50;;;18.27;;
55720;SDS011;41626;53.098;6.168;2023-02-21T04:11:39;26.70;;;19.03;;
55720;SDS011;41626;53.098;6.168;2023-02-21T04:14:07;32.40;;;20.58;;
55720;SDS011;41626;53.098;6.168;2023-02-21T04:16:33;22.27;;;18.50;;
55720;SDS011;41626;53.098;6.168;2023-02-21T04:18:59;25.00;;;18.03;;
55720;SDS011;41626;53.098;6.168;2023-02-21T04:21:24;26.37;;;19.97;;
55720;SDS011;41626;53.098;6.168;2023-02-21T04:23:50;25.73;;;19.17;;
55720;SDS011;41626;53.098;6.168;2023-02-21T04:26:16;27.43;;;20.70;;
55720;SDS011;41626;53.098;6.168;2023-02-21T04:28:41;28.70;;;19.73;;
55720;SDS011;41626;53.098;6.168;2023-02-21T04:31:07;26.73;;;20.33;;
55720;SDS011;41626;53.098;6.168;2023-02-21T04:33:32;32.08;;;18.13;;
55720;SDS011;41626;53.098;6.168;2023-02-21T04:35:58;28.25;;;17.95;;
55720;SDS011;41626;53.098;6.168;2023-02-21T04:38:24;26.20;;;19.08;;
55720;SDS011;41626;53.098;6.168;2023-02-21T04:40:49;27.58;;;20.02;;
55720;SDS011;41626;53.098;6.168;2023-02-21T04:43:15;21.33;;;17.50;;
55720;SDS011;41626;53.098;6.168;2023-02-21T04:45:41;24.17;;;18.48;;
55720;SDS011;41626;53.098;6.168;2023-02-21T04:48:07;25.25;;;18.60;;
55720;SDS011;41626;53.098;6.168;2023-02-21T04:50:32;29.05;;;18.30;;
55720;SDS011;41626;53.098;6.168;2023-02-21T04:52:58;26.27;;;18.95;;
55720;SDS011;41626;53.098;6.168;2023-02-21T04:55:24;26.67;;;18.90;;
55720;SDS011;41626;53.098;6.168;2023-02-21T04:57:50;28.60;;;19.98;;
55720;SDS011;41626;53.098;6.168;2023-02-21T05:00:16;27.00;;;19.75;;
55720;SDS011;41626;53.098;6.168;2023-02-21T05:02:42;26.13;;;19.30;;
55720;SDS011;41626;53.098;6.168;2023-02-21T05:05:08;28.73;;;18.95;;
55720;SDS011;41626;53.098;6.168;2023-02-21T05:07:34;28.03;;;19.03;;
55720;SDS011;41626;53.098;6.168;2023-02-21T05:10:00;28.73;;;18.80;;
55720;SDS011;41626;53.098;6.168;2023-02-21T05:12:25;30.13;;;20.40;;
55720;SDS011;41626;53.098;6.168;2023-02-21T05:14:51;25.83;;;19.33;;
55720;SDS011;41626;53.098;6.168;2023-02-21T05:17:17;25.50;;;20.27;;
55720;SDS011;41626;53.098;6.168;2023-02-21T05:19:45;26.87;;;20.60;;
55720;SDS011;41626;53.098;6.168;2023-02-21T05:22:10;27.85;;;19.92;;
55720;SDS011;41626;53.098;6.168;2023-02-21T05:24:39;27.47;;;19.53;;
55720;SDS011;41626;53.098;6.168;2023-02-21T05:27:10;26.35;;;19.30;;
55720;SDS011;41626;53.098;6.168;2023-02-21T05:29:40;29.17;;;18.33;;
55720;SDS011;41626;53.098;6.168;2023-02-21T05:32:06;26.08;;;19.05;;
55720;SDS011;41626;53.098;6.168;2023-02-21T05:34:32;25.15;;;19.17;;
55720;SDS011;41626;53.098;6.168;2023-02-21T05:36:57;25.50;;;19.30;;
55720;SDS011;41626;53.098;6.168;2023-02-21T05:39:23;29.52;;;20.55;;
55720;SDS011;41626;53.098;6.168;2023-02-21T05:41:49;27.15;;;18.92;;
55720;SDS011;41626;53.098;6.168;2023-02-21T05:44:16;29.60;;;18.83;;
55720;SDS011;41626;53.098;6.168;2023-02-21T05:46:42;25.40;;;19.47;;
55720;SDS011;41626;53.098;6.168;2023-02-21T05:49:10;30.58;;;20.88;;
55720;SDS011;41626;53.098;6.168;2023-02-21T05:51:36;29.65;;;19.02;;
55720;SDS011;41626;53.098;6.168;2023-02-21T05:54:04;29.00;;;19.27;;
55720;SDS011;41626;53.098;6.168;2023-02-21T05:56:36;28.10;;;17.85;;
55720;SDS011;41626;53.098;6.168;2023-02-21T05:59:03;28.42;;;19.42;;
55720;SDS011;41626;53.098;6.168;2023-02-21T06:01:29;28.77;;;19.88;;
55720;SDS011;41626;53.098;6.168;2023-02-21T06:03:54;28.77;;;19.58;;
55720;SDS011;41626;53.098;6.168;2023-02-21T06:06:20;32.15;;;20.10;;
55720;SDS011;41626;53.098;6.168;2023-02-21T06:08:47;24.17;;;18.58;;
55720;SDS011;41626;53.098;6.168;2023-02-21T06:11:14;26.85;;;20.30;;
55720;SDS011;41626;53.098;6.168;2023-02-21T06:13:45;26.45;;;21.05;;
55720;SDS011;41626;53.098;6.168;2023-02-21T06:16:13;31.23;;;22.07;;
55720;SDS011;41626;53.098;6.168;2023-02-21T06:18:39;29.83;;;21.03;;
55720;SDS011;41626;53.098;6.168;2023-02-21T06:21:05;29.93;;;21.10;;
55720;SDS011;41626;53.098;6.168;2023-02-21T06:23:30;26.43;;;18.50;;
55720;SDS011;41626;53.098;6.168;2023-02-21T06:25:56;32.05;;;20.48;;
55720;SDS011;41626;53.098;6.168;2023-02-21T06:28:26;34.10;;;20.75;;
55720;SDS011;41626;53.098;6.168;2023-02-21T06:30:53;26.75;;;20.45;;
55720;SDS011;41626;53.098;6.168;2023-02-21T06:33:19;27.45;;;20.15;;
55720;SDS011;41626;53.098;6.168;2023-02-21T06:35:45;28.15;;;20.77;;
55720;SDS011;41626;53.098;6.168;2023-02-21T06:38:10;28.95;;;20.25;;
55720;SDS011;41626;53.098;6.168;2023-02-21T06:40:36;28.73;;;22.48;;
55720;SDS011;41626;53.098;6.168;2023-02-21T06:43:02;28.03;;;21.00;;
55720;SDS011;41626;53.098;6.168;2023-02-21T06:45:27;27.63;;;21.75;;
55720;SDS011;41626;53.098;6.168;2023-02-21T06:47:53;26.92;;;21.10;;
55720;SDS011;41626;53.098;6.168;2023-02-21T06:50:19;30.33;;;22.27;;
55720;SDS011;41626;53.098;6.168;2023-02-21T06:52:44;31.10;;;22.90;;
55720;SDS011;41626;53.098;6.168;2023-02-21T06:55:10;28.87;;;22.07;;
55720;SDS011;41626;53.098;6.168;2023-02-21T06:57:36;35.10;;;22.90;;
55720;SDS011;41626;53.098;6.168;2023-02-21T07:00:02;29.30;;;21.67;;
55720;SDS011;41626;53.098;6.168;2023-02-21T07:02:29;34.17;;;25.00;;
55720;SDS011;41626;53.098;6.168;2023-02-21T07:04:54;30.42;;;22.40;;
55720;SDS011;41626;53.098;6.168;2023-02-21T07:07:20;31.55;;;23.50;;
55720;SDS011;41626;53.098;6.168;2023-02-21T07:09:46;32.33;;;25.10;;
55720;SDS011;41626;53.098;6.168;2023-02-21T07:12:11;29.90;;;22.63;;
55720;SDS011;41626;53.098;6.168;2023-02-21T07:14:37;32.80;;;21.73;;
55720;SDS011;41626;53.098;6.168;2023-02-21T07:17:03;33.13;;;23.13;;
55720;SDS011;41626;53.098;6.168;2023-02-21T07:19:28;36.03;;;23.67;;
55720;SDS011;41626;53.098;6.168;2023-02-21T07:21:54;30.67;;;23.73;;
55720;SDS011;41626;53.098;6.168;2023-02-21T07:24:20;28.80;;;22.57;;
55720;SDS011;41626;53.098;6.168;2023-02-21T07:26:45;36.37;;;22.50;;
55720;SDS011;41626;53.098;6.168;2023-02-21T07:29:11;34.97;;;23.27;;
55720;SDS011;41626;53.098;6.168;2023-02-21T07:31:37;36.27;;;25.40;;
55720;SDS011;41626;53.098;6.168;2023-02-21T07:34:03;34.63;;;25.17;;
55720;SDS011;41626;53.098;6.168;2023-02-21T07:36:28;32.85;;;24.70;;
55720;SDS011;41626;53.098;6.168;2023-02-21T07:38:55;31.17;;;23.73;;
55720;SDS011;41626;53.098;6.168;2023-02-21T07:41:21;32.77;;;23.07;;
55720;SDS011;41626;53.098;6.168;2023-02-21T07:43:47;32.10;;;24.43;;
55720;SDS011;41626;53.098;6.168;2023-02-21T07:46:13;30.33;;;23.87;;
55720;SDS011;41626;53.098;6.168;2023-02-21T07:48:40;27.17;;;22.77;;
55720;SDS011;41626;53.098;6.168;2023-02-21T07:51:06;32.87;;;23.97;;
55720;SDS011;41626;53.098;6.168;2023-02-21T07:53:33;30.13;;;24.27;;
55720;SDS011;41626;53.098;6.168;2023-02-21T07:55:59;31.83;;;23.95;;
55720;SDS011;41626;53.098;6.168;2023-02-21T07:58:24;32.05;;;24.02;;
55720;SDS011;41626;53.098;6.168;2023-02-21T08:00:50;31.73;;;24.25;;
55720;SDS011;41626;53.098;6.168;2023-02-21T08:03:16;30.95;;;24.00;;
55720;SDS011;41626;53.098;6.168;2023-02-21T08:05:42;30.38;;;23.33;;
55720;SDS011;41626;53.098;6.168;2023-02-21T08:08:10;30.40;;;23.08;;
55720;SDS011;41626;53.098;6.168;2023-02-21T08:10:36;33.05;;;23.58;;
55720;SDS011;41626;53.098;6.168;2023-02-21T08:13:02;30.23;;;22.80;;
55720;SDS011;41626;53.098;6.168;2023-02-21T08:15:28;31.27;;;21.98;;
55720;SDS011;41626;53.098;6.168;2023-02-21T08:17:53;31.88;;;22.58;;
55720;SDS011;41626;53.098;6.168;2023-02-21T08:20:19;29.52;;;22.65;;
55720;SDS011;41626;53.098;6.168;2023-02-21T08:22:45;28.40;;;23.13;;
55720;SDS011;41626;53.098;6.168;2023-02-21T08:25:11;33.75;;;24.45;;
55720;SDS011;41626;53.098;6.168;2023-02-21T08:27:38;33.15;;;22.48;;
55720;SDS011;41626;53.098;6.168;2023-02-21T08:30:05;30.50;;;23.73;;
55720;SDS011;41626;53.098;6.168;2023-02-21T08:32:36;33.80;;;23.30;;
55720;SDS011;41626;53.098;6.168;2023-02-21T08:35:02;30.40;;;22.70;;
55720;SDS011;41626;53.098;6.168;2023-02-21T08:37:30;26.60;;;22.85;;
55720;SDS011;41626;53.098;6.168;2023-02-21T08:40:00;26.08;;;21.20;;
55720;SDS011;41626;53.098;6.168;2023-02-21T08:42:26;30.58;;;22.40;;
55720;SDS011;41626;53.098;6.168;2023-02-21T08:44:52;29.80;;;22.97;;
55720;SDS011;41626;53.098;6.168;2023-02-21T08:47:18;28.10;;;21.90;;
55720;SDS011;41626;53.098;6.168;2023-02-21T08:49:44;30.27;;;22.17;;
55720;SDS011;41626;53.098;6.168;2023-02-21T08:52:11;25.80;;;22.63;;
55720;SDS011;41626;53.098;6.168;2023-02-21T08:54:39;32.03;;;24.30;;
55720;SDS011;41626;53.098;6.168;2023-02-21T08:57:04;27.02;;;21.52;;
55720;SDS011;41626;53.098;6.168;2023-02-21T08:59:30;26.48;;;22.17;;
55720;SDS011;41626;53.098;6.168;2023-02-21T09:01:58;25.80;;;21.85;;
55720;SDS011;41626;53.098;6.168;2023-02-21T09:04:24;28.05;;;21.50;;
55720;SDS011;41626;53.098;6.168;2023-02-21T09:06:52;24.67;;;20.20;;
55720;SDS011;41626;53.098;6.168;2023-02-21T09:09:20;27.08;;;22.88;;
55720;SDS011;41626;53.098;6.168;2023-02-21T09:11:46;27.38;;;21.27;;
55720;SDS011;41626;53.098;6.168;2023-02-21T09:14:14;24.30;;;21.73;;
55720;SDS011;41626;53.098;6.168;2023-02-21T09:16:40;24.92;;;22.23;;
55720;SDS011;41626;53.098;6.168;2023-02-21T09:19:07;27.38;;;22.25;;
55720;SDS011;41626;53.098;6.168;2023-02-21T09:21:33;25.73;;;20.67;;
55720;SDS011;41626;53.098;6.168;2023-02-21T09:24:00;25.48;;;20.95;;
55720;SDS011;41626;53.098;6.168;2023-02-21T09:26:27;22.52;;;19.92;;
55720;SDS011;41626;53.098;6.168;2023-02-21T09:28:56;23.83;;;20.65;;
55720;SDS011;41626;53.098;6.168;2023-02-21T09:31:22;29.97;;;20.23;;
55720;SDS011;41626;53.098;6.168;2023-02-21T09:33:48;24.97;;;21.50;;
55720;SDS011;41626;53.098;6.168;2023-02-21T09:36:14;24.80;;;19.47;;
55720;SDS011;41626;53.098;6.168;2023-02-21T09:38:42;25.00;;;21.60;;
55720;SDS011;41626;53.098;6.168;2023-02-21T09:41:09;22.83;;;18.73;;
55720;SDS011;41626;53.098;6.168;2023-02-21T09:43:42;25.50;;;20.60;;
55720;SDS011;41626;53.098;6.168;2023-02-21T09:46:12;23.77;;;20.33;;
55720;SDS011;41626;53.098;6.168;2023-02-21T09:48:42;22.38;;;19.90;;
55720;SDS011;41626;53.098;6.168;2023-02-21T09:51:09;24.35;;;20.05;;
55720;SDS011;41626;53.098;6.168;2023-02-21T09:53:37;22.27;;;19.88;;
55720;SDS011;41626;53.098;6.168;2023-02-21T09:58:52;23.80;;;19.55;;
55720;SDS011;41626;53.098;6.168;2023-02-21T10:01:28;21.70;;;19.42;;
55720;SDS011;41626;53.098;6.168;2023-02-21T10:06:56;24.17;;;19.40;;
55720;SDS011;41626;53.098;6.168;2023-02-21T10:09:32;21.70;;;19.40;;
55720;SDS011;41626;53.098;6.168;2023-02-21T10:17:44;26.27;;;18.90;;
55720;SDS011;41626;53.098;6.168;2023-02-21T10:20:14;20.50;;;18.33;;
55720;SDS011;41626;53.098;6.168;2023-02-21T10:22:51;23.85;;;17.33;;
55720;SDS011;41626;53.098;6.168;2023-02-21T10:25:28;21.52;;;18.10;;
55720;SDS011;41626;53.098;6.168;2023-02-21T10:27:56;23.75;;;18.85;;
55720;SDS011;41626;53.098;6.168;2023-02-21T10:30:33;21.08;;;17.63;;
55720;SDS011;41626;53.098;6.168;2023-02-21T10:33:01;22.05;;;18.45;;
55720;SDS011;41626;53.098;6.168;2023-02-21T10:35:31;21.67;;;17.33;;
55720;SDS011;41626;53.098;6.168;2023-02-21T10:37:58;20.48;;;17.58;;
55720;SDS011;41626;53.098;6.168;2023-02-21T10:42:55;21.23;;;17.73;;
55720;SDS011;41626;53.098;6.168;2023-02-21T10:48:32;17.92;;;16.02;;
55720;SDS011;41626;53.098;6.168;2023-02-21T10:51:10;19.53;;;16.03;;
55720;SDS011;41626;53.098;6.168;2023-02-21T10:53:41;22.00;;;18.10;;
55720;SDS011;41626;53.098;6.168;2023-02-21T10:58:43;20.97;;;17.13;;
55720;SDS011;41626;53.098;6.168;2023-02-21T11:04:22;19.70;;;17.35;;
55720;SDS011;41626;53.098;6.168;2023-02-21T11:06:56;21.45;;;17.77;;
55720;SDS011;41626;53.098;6.168;2023-02-21T11:12:05;20.10;;;16.13;;
55720;SDS011;41626;53.098;6.168;2023-02-21T11:14:41;19.92;;;16.15;;
55720;SDS011;41626;53.098;6.168;2023-02-21T11:22:44;22.15;;;17.17;;
55720;SDS011;41626;53.098;6.168;2023-02-21T11:25:28;18.40;;;16.50;;
55720;SDS011;41626;53.098;6.168;2023-02-21T11:33:17;22.88;;;17.17;;
55720;SDS011;41626;53.098;6.168;2023-02-21T11:35:46;20.73;;;17.40;;
55720;SDS011;41626;53.098;6.168;2023-02-21T11:41:02;22.70;;;17.37;;
55720;SDS011;41626;53.098;6.168;2023-02-21T11:43:59;20.23;;;17.88;;
55720;SDS011;41626;53.098;6.168;2023-02-21T11:46:33;20.70;;;18.35;;
55720;SDS011;41626;53.098;6.168;2023-02-21T11:54:25;22.30;;;18.10;;
55720;SDS011;41626;53.098;6.168;2023-02-21T11:57:06;21.20;;;19.00;;
55720;SDS011;41626;53.098;6.168;2023-02-21T12:07:16;20.35;;;18.20;;
55720;SDS011;41626;53.098;6.168;2023-02-21T12:10:08;21.70;;;18.10;;
55720;SDS011;41626;53.098;6.168;2023-02-21T12:21:19;22.75;;;17.52;;
55720;SDS011;41626;53.098;6.168;2023-02-21T12:23:52;21.80;;;17.52;;
55720;SDS011;41626;53.098;6.168;2023-02-21T12:29:08;22.13;;;17.90;;
55720;SDS011;41626;53.098;6.168;2023-02-21T12:40:39;22.23;;;19.35;;
55720;SDS011;41626;53.098;6.168;2023-02-21T12:51:12;20.80;;;18.20;;
55720;SDS011;41626;53.098;6.168;2023-02-21T12:53:55;20.07;;;16.80;;
55720;SDS011;41626;53.098;6.168;2023-02-21T12:59:21;24.75;;;18.60;;
55720;SDS011;41626;53.098;6.168;2023-02-21T13:01:57;25.73;;;19.15;;
55720;SDS011;41626;53.098;6.168;2023-02-21T13:04:47;23.58;;;18.35;;
55720;SDS011;41626;53.098;6.168;2023-02-21T13:07:23;22.20;;;18.35;;
55720;SDS011;41626;53.098;6.168;2023-02-21T13:10:04;23.67;;;18.30;;
55720;SDS011;41626;53.098;6.168;2023-02-21T13:12:42;22.02;;;18.73;;
55720;SDS011;41626;53.098;6.168;2023-02-21T13:18:07;24.00;;;17.95;;
55720;SDS011;41626;53.098;6.168;2023-02-21T13:20:45;20.58;;;17.27;;
55720;SDS011;41626;53.098;6.168;2023-02-21T13:23:17;20.63;;;17.42;;
55720;SDS011;41626;53.098;6.168;2023-02-21T13:29:23;20.33;;;18.13;;
55720;SDS011;41626;53.098;6.168;2023-02-21T13:31:59;23.95;;;17.48;;
55720;SDS011;41626;53.098;6.168;2023-02-21T13:34:39;20.63;;;18.30;;
55720;SDS011;41626;53.098;6.168;2023-02-21T13:37:12;20.67;;;17.85;;
55720;SDS011;41626;53.098;6.168;2023-02-21T13:39:43;21.27;;;18.08;;
55720;SDS011;41626;53.098;6.168;2023-02-21T13:42:26;21.02;;;18.58;;
55720;SDS011;41626;53.098;6.168;2023-02-21T13:45:03;19.63;;;17.40;;
55720;SDS011;41626;53.098;6.168;2023-02-21T13:51:03;20.55;;;17.90;;
55720;SDS011;41626;53.098;6.168;2023-02-21T13:58:33;20.55;;;18.35;;
55720;SDS011;41626;53.098;6.168;2023-02-21T14:01:41;20.40;;;18.13;;
55720;SDS011;41626;53.098;6.168;2023-02-21T14:03:48;22.42;;;18.77;;
55720;SDS011;41626;53.098;6.168;2023-02-21T14:08:52;20.13;;;18.10;;
55720;SDS011;41626;53.098;6.168;2023-02-21T14:11:23;24.17;;;18.60;;
55720;SDS011;41626;53.098;6.168;2023-02-21T14:13:56;23.75;;;19.67;;
55720;SDS011;41626;53.098;6.168;2023-02-21T14:18:58;22.63;;;20.17;;
55720;SDS011;41626;53.098;6.168;2023-02-21T14:24:16;21.27;;;19.00;;
55720;SDS011;41626;53.098;6.168;2023-02-21T14:26:53;21.70;;;19.45;;
55720;SDS011;41626;53.098;6.168;2023-02-21T14:37:32;20.95;;;18.50;;
55720;SDS011;41626;53.098;6.168;2023-02-21T14:45:21;20.73;;;18.58;;
55720;SDS011;41626;53.098;6.168;2023-02-21T14:47:57;24.87;;;21.20;;
55720;SDS011;41626;53.098;6.168;2023-02-21T15:04:41;31.30;;;26.67;;
55720;SDS011;41626;53.098;6.168;2023-02-21T15:10:30;32.92;;;26.35;;
55720;SDS011;41626;53.098;6.168;2023-02-21T15:12:33;29.47;;;25.40;;
55720;SDS011;41626;53.098;6.168;2023-02-21T15:15:03;31.05;;;26.52;;
55720;SDS011;41626;53.098;6.168;2023-02-21T15:17:29;29.38;;;26.05;;
55720;SDS011;41626;53.098;6.168;2023-02-21T15:20:14;30.05;;;26.00;;
55720;SDS011;41626;53.098;6.168;2023-02-21T15:22:41;31.27;;;26.42;;
55720;SDS011;41626;53.098;6.168;2023-02-21T15:27:36;36.15;;;27.45;;
55720;SDS011;41626;53.098;6.168;2023-02-21T15:30:26;32.45;;;26.58;;
55720;SDS011;41626;53.098;6.168;2023-02-21T15:35:43;30.38;;;25.48;;
55720;SDS011;41626;53.098;6.168;2023-02-21T15:41:02;27.33;;;24.45;;
55720;SDS011;41626;53.098;6.168;2023-02-21T15:43:35;29.58;;;25.55;;
55720;SDS011;41626;53.098;6.168;2023-02-21T15:46:15;31.00;;;25.37;;
55720;SDS011;41626;53.098;6.168;2023-02-21T15:48:45;30.60;;;26.10;;
55720;SDS011;41626;53.098;6.168;2023-02-21T15:51:11;29.88;;;24.88;;
55720;SDS011;41626;53.098;6.168;2023-02-21T15:53:37;28.17;;;23.08;;
55720;SDS011;41626;53.098;6.168;2023-02-21T15:56:22;25.83;;;22.80;;
55720;SDS011;41626;53.098;6.168;2023-02-21T16:01:33;28.13;;;23.83;;
55720;SDS011;41626;53.098;6.168;2023-02-21T16:04:16;28.77;;;24.35;;
55720;SDS011;41626;53.098;6.168;2023-02-21T16:06:44;27.43;;;24.50;;
55720;SDS011;41626;53.098;6.168;2023-02-21T16:09:20;31.30;;;23.55;;
55720;SDS011;41626;53.098;6.168;2023-02-21T16:14:29;22.88;;;20.48;;
55720;SDS011;41626;53.098;6.168;2023-02-21T16:19:59;24.70;;;21.15;;
55720;SDS011;41626;53.098;6.168;2023-02-21T16:22:50;23.63;;;21.08;;
55720;SDS011;41626;53.098;6.168;2023-02-21T16:25:52;24.02;;;21.38;;
55720;SDS011;41626;53.098;6.168;2023-02-21T16:28:28;26.27;;;19.98;;
55720;SDS011;41626;53.098;6.168;2023-02-21T16:30:56;24.07;;;21.13;;
55720;SDS011;41626;53.098;6.168;2023-02-21T16:33:24;25.10;;;22.35;;
55720;SDS011;41626;53.098;6.168;2023-02-21T16:35:51;26.08;;;23.27;;
55720;SDS011;41626;53.098;6.168;2023-02-21T16:38:18;28.83;;;24.02;;
55720;SDS011;41626;53.098;6.168;2023-02-21T16:40:45;26.02;;;23.17;;
55720;SDS011;41626;53.098;6.168;2023-02-21T16:43:15;27.25;;;24.33;;
55720;SDS011;41626;53.098;6.168;2023-02-21T16:45:50;31.80;;;24.40;;
55720;SDS011;41626;53.098;6.168;2023-02-21T16:48:19;25.83;;;23.15;;
55720;SDS011;41626;53.098;6.168;2023-02-21T16:50:47;28.38;;;24.27;;
55720;SDS011;41626;53.098;6.168;2023-02-21T16:53:14;28.98;;;23.70;;
55720;SDS011;41626;53.098;6.168;2023-02-21T16:55:41;31.52;;;25.70;;
55720;SDS011;41626;53.098;6.168;2023-02-21T16:58:14;26.20;;;23.45;;
55720;SDS011;41626;53.098;6.168;2023-02-21T17:00:54;29.48;;;23.88;;
55720;SDS011;41626;53.098;6.168;2023-02-21T17:03:21;24.08;;;21.55;;
55720;SDS011;41626;53.098;6.168;2023-02-21T17:05:49;25.00;;;22.40;;
55720;SDS011;41626;53.098;6.168;2023-02-21T17:08:16;27.13;;;22.75;;
55720;SDS011;41626;53.098;6.168;2023-02-21T17:10:42;24.00;;;21.60;;
55720;SDS011;41626;53.098;6.168;2023-02-21T17:13:08;25.65;;;22.85;;
55720;SDS011;41626;53.098;6.168;2023-02-21T17:15:34;26.40;;;22.25;;
55720;SDS011;41626;53.098;6.168;2023-02-21T17:17:59;26.17;;;22.23;;
55720;SDS011;41626;53.098;6.168;2023-02-21T17:20:25;26.58;;;23.27;;
55720;SDS011;41626;53.098;6.168;2023-02-21T17:22:52;26.42;;;22.60;;
55720;SDS011;41626;53.098;6.168;2023-02-21T17:25:18;25.63;;;22.92;;
55720;SDS011;41626;53.098;6.168;2023-02-21T17:27:45;26.52;;;23.73;;
55720;SDS011;41626;53.098;6.168;2023-02-21T17:30:11;26.17;;;22.17;;
55720;SDS011;41626;53.098;6.168;2023-02-21T17:32:37;28.50;;;22.42;;
55720;SDS011;41626;53.098;6.168;2023-02-21T17:35:03;24.52;;;21.95;;
55720;SDS011;41626;53.098;6.168;2023-02-21T17:37:29;24.70;;;22.15;;
55720;SDS011;41626;53.098;6.168;2023-02-21T17:39:55;27.10;;;22.38;;
55720;SDS011;41626;53.098;6.168;2023-02-21T17:42:22;25.35;;;22.65;;
55720;SDS011;41626;53.098;6.168;2023-02-21T17:44:48;27.40;;;23.80;;
55720;SDS011;41626;53.098;6.168;2023-02-21T17:47:20;24.13;;;21.70;;
55720;SDS011;41626;53.098;6.168;2023-02-21T17:49:47;24.23;;;21.80;;
55720;SDS011;41626;53.098;6.168;2023-02-21T17:52:14;25.40;;;22.67;;
55720;SDS011;41626;53.098;6.168;2023-02-21T17:54:40;24.67;;;21.98;;
55720;SDS011;41626;53.098;6.168;2023-02-21T17:57:06;25.15;;;22.45;;
55720;SDS011;41626;53.098;6.168;2023-02-21T17:59:33;25.00;;;22.30;;